Terminal Aerodrome Forecast
Issued by NWS Omaha/Valley, NE

Home | Current Version | Previous Version | Text Only | Print | Product List | Glossary On
Versions: 1 2 3 4 5 6 7 8 9 10 11 12 13 14 15 16 17 18 19 20 21 22 23
000
FTUS43 KOAX 220809 AAB
TAFOMA
TAF AMD
KOMA 220809Z 2208/2306 06006KT P6SM -SN OVC060
      TEMPO 2208/2210 4SM -SN OVC025
     FM221000 07005KT 3SM -SN OVC040
      TEMPO 2210/2212 1SM -SN OVC015
     FM221300 08006KT P6SM OVC025
     FM221700 10007KT 5SM -FZDZSN OVC015
     FM222300 11006KT 3SM -FZRASN OVC010
     FM230400 12007KT P6SM OVC015=

USA.gov is the U.S. government's official web portal to all federal, state and local government web resources and services.